createdAt,value
2024-05-09T00:03:11.357Z,8.00
2024-05-09T00:05:40.563Z,8.57
2024-05-09T00:08:08.474Z,8.38
2024-05-09T00:10:37.820Z,9.18
2024-05-09T00:13:06.529Z,7.55
2024-05-09T00:15:34.170Z,8.13
2024-05-09T00:18:01.714Z,8.48
2024-05-09T00:20:36.456Z,7.30
2024-05-09T00:23:09.534Z,7.43
2024-05-09T00:25:36.648Z,7.53
2024-05-09T00:28:03.555Z,7.78
2024-05-09T00:30:34.909Z,8.55
2024-05-09T00:33:04.919Z,8.93
2024-05-09T00:35:32.595Z,7.43
2024-05-09T00:37:59.396Z,6.78
2024-05-09T00:40:35.619Z,8.10
2024-05-09T00:43:06.530Z,7.72
2024-05-09T00:45:34.788Z,8.73
2024-05-09T00:48:02.997Z,7.55
2024-05-09T00:50:35.851Z,7.50
2024-05-09T00:53:05.158Z,7.13
2024-05-09T00:55:32.007Z,7.30
2024-05-09T00:57:58.735Z,8.25
2024-05-09T01:00:31.806Z,8.48
2024-05-09T01:03:05.799Z,7.40
2024-05-09T01:05:32.863Z,7.47
2024-05-09T01:07:59.636Z,7.82
2024-05-09T01:10:33.591Z,8.75
2024-05-09T01:13:02.011Z,7.70
2024-05-09T01:15:28.666Z,8.05
2024-05-09T01:17:56.507Z,7.38
2024-05-09T01:20:32.095Z,8.30
2024-05-09T01:23:07.219Z,7.97
2024-05-09T01:25:34.038Z,8.57
2024-05-09T01:28:00.786Z,7.55
2024-05-09T01:30:34.078Z,7.80
2024-05-09T01:33:03.367Z,8.27
2024-05-09T01:35:30.479Z,8.05
2024-05-09T01:37:57.236Z,8.13
2024-05-09T01:40:33.434Z,7.82
2024-05-09T01:43:04.599Z,6.60
2024-05-09T01:45:31.354Z,6.47
2024-05-09T01:47:58.386Z,7.57
2024-05-09T01:50:36.709Z,8.75
2024-05-09T01:53:07.268Z,8.10
2024-05-09T01:55:33.964Z,8.88
2024-05-09T01:58:00.658Z,8.30
2024-05-09T02:00:37.936Z,8.48
2024-05-09T02:03:15.423Z,8.60
2024-05-09T02:05:48.125Z,7.00
2024-05-09T02:08:16.751Z,7.57
2024-05-09T02:10:47.469Z,7.50
2024-05-09T02:13:14.858Z,7.55
2024-05-09T02:15:41.630Z,7.80
2024-05-09T02:18:09.163Z,8.20
2024-05-09T02:20:38.186Z,6.70
2024-05-09T02:23:06.562Z,8.73
2024-05-09T02:25:33.942Z,7.78
2024-05-09T02:28:00.883Z,7.70
2024-05-09T02:30:37.938Z,7.40
2024-05-09T02:33:08.717Z,8.10
2024-05-09T02:35:36.333Z,7.60
2024-05-09T02:38:03.266Z,8.43
2024-05-09T02:40:36.628Z,7.50
2024-05-09T02:43:05.929Z,6.72
2024-05-09T02:45:33.109Z,8.07
2024-05-09T02:48:00.186Z,7.30
2024-05-09T02:50:34.459Z,6.88
2024-05-09T02:53:05.662Z,7.78
2024-05-09T02:55:32.790Z,8.25
2024-05-09T02:57:59.668Z,7.65
2024-05-09T03:00:34.717Z,6.25
2024-05-09T03:03:06.749Z,6.25
2024-05-09T03:05:33.768Z,6.55
2024-05-09T03:08:00.540Z,8.25
2024-05-09T03:10:29.176Z,6.85
2024-05-09T03:13:05.454Z,7.38
2024-05-09T03:15:33.237Z,7.47
2024-05-09T03:18:01.170Z,7.32
2024-05-09T03:20:33.538Z,7.47
2024-05-09T03:23:02.351Z,7.60
2024-05-09T03:25:29.164Z,6.63
2024-05-09T03:27:55.830Z,6.38
2024-05-09T03:30:31.273Z,7.20
2024-05-09T03:33:09.666Z,7.30
2024-05-09T03:35:36.574Z,7.88
2024-05-09T03:38:03.411Z,8.18
2024-05-09T03:40:31.123Z,7.25
2024-05-09T03:42:58.912Z,7.25
2024-05-09T03:45:25.702Z,8.32
2024-05-09T03:47:52.859Z,8.05
2024-05-09T03:50:26.460Z,7.13
2024-05-09T03:53:00.527Z,7.32
2024-05-09T03:55:27.385Z,8.98
2024-05-09T03:57:54.065Z,7.00
2024-05-09T04:00:30.455Z,6.60
2024-05-09T04:03:02.983Z,8.80
2024-05-09T04:05:31.145Z,8.65
2024-05-09T04:07:59.477Z,7.30
2024-05-09T04:10:32.864Z,8.32
2024-05-09T04:13:01.346Z,8.07
2024-05-09T04:15:28.092Z,7.47
2024-05-09T04:17:54.998Z,7.20
2024-05-09T04:20:32.842Z,7.65
2024-05-09T04:23:05.431Z,7.55
2024-05-09T04:25:32.373Z,7.72
2024-05-09T04:27:59.067Z,6.70
2024-05-09T04:30:34.678Z,7.63
2024-05-09T04:33:06.910Z,7.40
2024-05-09T04:35:34.776Z,7.80
2024-05-09T04:38:01.605Z,7.93
2024-05-09T04:40:33.728Z,7.53
2024-05-09T04:43:03.215Z,5.95
2024-05-09T04:45:30.149Z,7.97
2024-05-09T04:47:56.976Z,7.70
2024-05-09T04:50:33.184Z,7.55
2024-05-09T04:53:04.082Z,8.00
2024-05-09T04:55:30.881Z,7.10
2024-05-09T04:57:57.666Z,7.75
2024-05-09T05:00:32.528Z,6.70
2024-05-09T05:03:07.227Z,8.23
2024-05-09T05:05:36.348Z,7.28
2024-05-09T05:08:03.085Z,8.13
2024-05-09T05:10:35.681Z,8.25
2024-05-09T05:13:17.955Z,7.97
2024-05-09T05:15:46.148Z,7.22
2024-05-09T05:18:12.982Z,7.63
2024-05-09T05:20:39.711Z,8.82
2024-05-09T05:23:10.305Z,6.97
2024-05-09T05:25:37.102Z,7.82
2024-05-09T05:28:03.879Z,7.80
2024-05-09T05:30:34.552Z,7.20
2024-05-09T05:33:02.081Z,9.13
2024-05-09T05:35:28.995Z,7.97
2024-05-09T05:37:55.783Z,7.95
2024-05-09T05:40:32.007Z,8.30
2024-05-09T05:43:03.040Z,7.28
2024-05-09T05:45:29.732Z,7.80
2024-05-09T05:47:56.750Z,8.13
2024-05-09T05:50:28.149Z,8.27
2024-05-09T05:53:02.202Z,7.25
2024-05-09T05:55:29.099Z,7.78
2024-05-09T05:57:55.783Z,6.68
2024-05-09T06:00:29.750Z,7.57
2024-05-09T06:03:04.382Z,6.78
2024-05-09T06:05:31.264Z,6.57
2024-05-09T06:07:58.087Z,6.28
2024-05-09T06:10:30.069Z,7.63
2024-05-09T06:13:04.019Z,6.82
2024-05-09T06:15:30.683Z,6.65
2024-05-09T06:17:57.540Z,6.65
2024-05-09T06:20:33.891Z,7.22
2024-05-09T06:23:03.518Z,6.10
2024-05-09T06:25:30.354Z,5.65
2024-05-09T06:27:57.006Z,5.43
2024-05-09T06:30:35.036Z,5.60
2024-05-09T06:33:06.377Z,5.45
2024-05-09T06:35:34.056Z,5.88
2024-05-09T06:38:01.182Z,5.18
2024-05-09T06:40:35.879Z,6.65
2024-05-09T06:45:31.957Z,5.47
2024-05-09T06:47:58.738Z,5.68
2024-05-09T06:50:28.538Z,5.63
2024-05-09T06:53:02.327Z,6.32
2024-05-09T06:55:29.280Z,4.93
2024-05-09T06:57:56.162Z,5.45
2024-05-09T07:00:30.498Z,6.38
2024-05-09T07:03:12.940Z,5.00
2024-05-09T07:05:41.807Z,4.75
2024-05-09T07:08:08.608Z,5.72
2024-05-09T07:10:36.539Z,4.60
2024-05-09T07:13:07.712Z,4.82
2024-05-09T07:15:34.366Z,5.57
2024-05-09T07:18:01.242Z,4.85
2024-05-09T07:20:34.188Z,4.90
2024-05-09T07:23:02.938Z,5.13
2024-05-09T07:25:30.007Z,5.60
2024-05-09T07:27:56.997Z,5.00
2024-05-09T07:30:32.613Z,5.78
2024-05-09T07:35:28.038Z,5.60
2024-05-09T07:37:54.858Z,5.60
2024-05-09T07:40:29.018Z,5.43
2024-05-09T07:43:06.695Z,4.35
2024-05-09T07:52:23.526Z,4.68
2024-05-09T07:53:38.530Z,4.35
2024-05-09T07:56:07.042Z,5.22
2024-05-09T07:58:34.019Z,5.18
2024-05-09T08:01:02.724Z,4.68
2024-05-09T08:03:29.604Z,5.18
2024-05-09T08:05:56.400Z,5.82
2024-05-09T08:08:23.147Z,5.40
2024-05-09T08:10:50.578Z,6.45
2024-05-09T08:13:17.600Z,4.82
2024-05-09T08:15:44.360Z,5.75
2024-05-09T08:18:11.515Z,5.70
2024-05-09T08:20:38.838Z,5.82
2024-05-09T08:23:05.761Z,4.63
2024-05-09T08:25:32.415Z,5.00
2024-05-09T08:27:59.077Z,5.32
2024-05-09T08:30:32.849Z,5.72
2024-05-09T08:33:03.693Z,5.13
2024-05-09T08:35:30.471Z,4.97
2024-05-09T08:37:57.329Z,5.15
2024-05-09T08:40:30.959Z,4.82
2024-05-09T08:43:02.715Z,5.28
2024-05-09T08:45:29.738Z,4.97
2024-05-09T08:47:56.765Z,4.72
2024-05-09T08:50:31.676Z,5.00
2024-05-09T08:53:05.137Z,4.28
2024-05-09T08:55:31.902Z,4.97
2024-05-09T08:57:59.362Z,3.30
2024-05-09T09:00:35.660Z,3.92
2024-05-09T09:03:07.836Z,2.80
2024-05-09T09:05:38.055Z,3.13
2024-05-09T09:08:06.769Z,2.85
2024-05-09T09:10:33.745Z,3.67
2024-05-09T09:13:09.781Z,3.50
2024-05-09T09:15:47.160Z,3.97
2024-05-09T09:18:14.990Z,2.83
2024-05-09T09:20:41.979Z,3.00
2024-05-09T09:23:09.025Z,3.58
2024-05-09T09:25:35.803Z,3.53
2024-05-09T09:28:02.449Z,3.72
2024-05-09T09:30:36.363Z,4.43
2024-05-09T09:33:05.854Z,3.20
2024-05-09T09:35:32.971Z,3.80
2024-05-09T09:38:02.147Z,2.92
2024-05-09T09:40:35.087Z,2.45
2024-05-09T09:43:07.296Z,2.38
2024-05-09T09:45:36.014Z,2.67
2024-05-09T09:48:02.966Z,2.17
2024-05-09T09:50:34.387Z,2.10
2024-05-09T09:53:03.225Z,2.15
2024-05-09T09:55:31.565Z,2.55
2024-05-09T09:57:58.322Z,2.40
2024-05-09T10:00:32.383Z,2.45
2024-05-09T10:03:00.697Z,2.42
2024-05-09T10:05:28.305Z,2.63
2024-05-09T10:07:55.744Z,3.10
2024-05-09T10:10:31.989Z,2.58
2024-05-09T10:13:00.739Z,2.35
2024-05-09T10:15:27.781Z,2.67
2024-05-09T10:17:54.729Z,2.70
2024-05-09T10:20:25.138Z,2.50
2024-05-09T10:22:54.893Z,3.03
2024-05-09T10:25:21.913Z,2.85
2024-05-09T10:27:54.875Z,3.00
2024-05-09T10:32:54.285Z,2.70
2024-05-09T10:35:22.817Z,2.65
2024-05-09T10:37:51.235Z,2.60
2024-05-09T10:40:26.034Z,2.65
2024-05-09T10:43:50.358Z,2.30
2024-05-09T10:46:19.399Z,2.45
2024-05-09T10:48:47.667Z,2.75
2024-05-09T10:51:14.782Z,2.97
2024-05-09T10:53:42.531Z,2.40
2024-05-09T10:56:09.348Z,2.60
2024-05-09T10:58:36.132Z,2.70
2024-05-09T11:01:06.408Z,3.00
2024-05-09T11:03:34.363Z,2.80
2024-05-09T11:06:01.367Z,2.55
2024-05-09T11:08:28.311Z,2.47
2024-05-09T11:10:56.185Z,2.92
2024-05-09T11:13:41.247Z,2.60
2024-05-09T11:16:20.236Z,2.35
2024-05-09T11:18:58.998Z,2.72
2024-05-09T11:21:26.148Z,2.28
2024-05-09T11:23:53.058Z,2.55
2024-05-09T11:26:21.672Z,2.10
2024-05-09T11:28:48.436Z,2.40
2024-05-09T11:31:15.171Z,2.67
2024-05-09T11:34:26.538Z,2.53
2024-05-09T11:36:53.369Z,2.00
2024-05-09T11:39:20.025Z,2.53
2024-05-09T11:41:46.671Z,2.15
2024-05-09T11:44:13.372Z,2.42
2024-05-09T11:46:40.101Z,2.30
2024-05-09T11:49:06.877Z,2.20
2024-05-09T11:51:33.756Z,2.75
2024-05-09T11:54:00.492Z,1.92
2024-05-09T11:56:27.226Z,2.33
2024-05-09T11:58:53.976Z,2.00
2024-05-09T12:01:21.344Z,2.28
2024-05-09T12:03:51.641Z,2.17
2024-05-09T12:06:18.492Z,2.22
2024-05-09T12:08:45.204Z,2.72
2024-05-09T12:11:13.940Z,1.85
2024-05-09T12:13:40.654Z,2.20
2024-05-09T12:16:07.545Z,2.25
2024-05-09T12:18:34.530Z,1.80
2024-05-09T12:21:01.583Z,1.83
2024-05-09T12:23:28.366Z,1.60
2024-05-09T12:25:55.064Z,2.08
2024-05-09T12:28:21.952Z,1.70
2024-05-09T12:30:49.969Z,2.03
2024-05-09T12:33:16.979Z,2.25
2024-05-09T12:35:46.548Z,2.13
2024-05-09T12:38:15.434Z,1.95
2024-05-09T12:40:42.602Z,1.90
2024-05-09T12:43:10.631Z,2.42
2024-05-09T12:45:38.620Z,1.77
2024-05-09T12:48:08.508Z,2.50
2024-05-09T12:50:35.692Z,1.67
2024-05-09T12:53:03.716Z,1.50
2024-05-09T12:55:37.332Z,1.70
2024-05-09T12:58:11.360Z,1.05
2024-05-09T13:00:38.342Z,1.80
2024-05-09T13:03:05.270Z,1.73
2024-05-09T13:05:32.334Z,2.13
2024-05-09T13:08:00.731Z,2.30
2024-05-09T13:10:32.141Z,1.73
2024-05-09T13:13:00.891Z,1.88
2024-05-09T13:15:28.361Z,2.03
2024-05-09T13:17:57.928Z,2.15
2024-05-09T13:20:32.378Z,1.92
2024-05-09T13:23:01.582Z,1.98
2024-05-09T13:25:28.268Z,2.28
2024-05-09T13:27:55.080Z,1.90
2024-05-09T13:30:29.491Z,1.40
2024-05-09T13:33:05.176Z,1.80
2024-05-09T13:35:32.373Z,2.00
2024-05-09T13:37:59.111Z,2.08
2024-05-09T13:40:32.723Z,1.80
2024-05-09T13:43:02.183Z,2.75
2024-05-09T13:45:29.132Z,2.03
2024-05-09T13:47:56.059Z,1.90
2024-05-09T13:50:31.154Z,1.98
2024-05-09T13:53:02.036Z,1.70
2024-05-09T13:55:28.860Z,2.15
2024-05-09T13:57:55.697Z,1.60
2024-05-09T14:00:32.318Z,1.85
2024-05-09T14:03:09.578Z,1.90
2024-05-09T14:05:36.798Z,1.58
2024-05-09T14:08:03.815Z,2.13
2024-05-09T14:10:31.973Z,1.92
2024-05-09T14:13:00.273Z,2.10
2024-05-09T14:15:27.214Z,1.70
2024-05-09T14:17:54.494Z,1.90
2024-05-09T14:22:50.845Z,1.85
2024-05-09T14:25:17.613Z,1.95
2024-05-09T14:27:44.463Z,1.73
2024-05-09T14:30:18.272Z,1.23
2024-05-09T14:32:52.729Z,1.40
2024-05-09T14:35:19.641Z,2.10
2024-05-09T14:37:46.347Z,1.88
2024-05-09T14:40:30.388Z,1.83
2024-05-09T14:43:03.255Z,1.75
2024-05-09T14:45:30.217Z,1.65
2024-05-09T14:47:57.219Z,1.45
2024-05-09T14:50:32.534Z,1.73
2024-05-09T14:53:03.516Z,1.88
2024-05-09T14:55:30.650Z,1.55
2024-05-09T14:57:57.445Z,1.50
2024-05-09T15:00:28.945Z,1.83
2024-05-09T15:03:00.791Z,1.65
2024-05-09T15:05:27.608Z,1.70
2024-05-09T15:07:54.495Z,1.90
2024-05-09T15:10:27.473Z,1.90
2024-05-09T15:13:01.216Z,1.58
2024-05-09T15:15:27.961Z,1.80
2024-05-09T15:17:55.171Z,1.63
2024-05-09T15:20:30.777Z,2.15
2024-05-09T15:23:01.787Z,1.40
2024-05-09T15:25:28.618Z,1.63
2024-05-09T15:27:55.438Z,1.80
2024-05-09T15:30:29.576Z,1.95
2024-05-09T15:32:58.581Z,1.65
2024-05-09T15:35:25.244Z,1.75
2024-05-09T15:37:51.868Z,1.65
2024-05-09T15:40:26.569Z,1.90
2024-05-09T15:43:02.541Z,1.50
2024-05-09T15:45:29.669Z,1.40
2024-05-09T15:47:56.941Z,1.20
2024-05-09T15:50:35.091Z,1.30
2024-05-09T15:53:06.124Z,1.35
2024-05-09T15:55:34.705Z,1.48
2024-05-09T15:58:02.639Z,1.92
2024-05-09T16:00:37.439Z,1.55
2024-05-09T16:03:08.190Z,1.77
2024-05-09T16:05:35.136Z,1.52
2024-05-09T16:08:02.054Z,1.85
2024-05-09T16:10:32.756Z,1.38
2024-05-09T16:13:01.596Z,1.70
2024-05-09T16:15:28.689Z,1.63
2024-05-09T16:17:55.601Z,1.60
2024-05-09T16:20:33.917Z,1.92
2024-05-09T16:23:05.967Z,1.60
2024-05-09T16:25:32.664Z,1.80
2024-05-09T16:27:59.679Z,1.58
2024-05-09T16:30:33.742Z,1.70
2024-05-09T16:33:03.019Z,2.20
2024-05-09T16:35:30.160Z,1.65
2024-05-09T16:37:57.365Z,1.85
2024-05-09T16:40:33.167Z,1.35
2024-05-09T16:43:04.697Z,1.30
2024-05-09T16:45:31.848Z,1.85
2024-05-09T16:47:59.662Z,1.50
2024-05-09T16:50:32.209Z,1.20
2024-05-09T16:53:01.004Z,1.40
2024-05-09T16:55:27.894Z,1.33
2024-05-09T16:57:55.628Z,1.38
2024-05-09T17:00:31.767Z,1.52
2024-05-09T17:03:07.165Z,1.20
2024-05-09T17:05:34.891Z,1.60
2024-05-09T17:08:02.132Z,1.38
2024-05-09T17:10:33.065Z,1.40
2024-05-09T17:13:01.879Z,1.42
2024-05-09T17:15:28.709Z,1.48
2024-05-09T17:17:55.714Z,1.75
2024-05-09T17:20:29.671Z,1.88
2024-05-09T17:23:01.719Z,1.88
2024-05-09T17:25:28.518Z,1.70
2024-05-09T17:27:55.429Z,1.80
2024-05-09T17:30:29.081Z,1.67
2024-05-09T17:33:02.037Z,1.58
2024-05-09T17:35:29.004Z,1.50
2024-05-09T17:37:55.712Z,1.33
2024-05-09T17:40:30.857Z,1.60
2024-05-09T17:43:01.623Z,1.30
2024-05-09T17:45:28.520Z,1.33
2024-05-09T17:47:55.558Z,1.40
2024-05-09T17:50:30.234Z,1.58
2024-05-09T17:53:01.538Z,1.73
2024-05-09T17:55:28.824Z,1.33
2024-05-09T17:57:55.854Z,1.73
2024-05-09T18:00:33.067Z,1.67
2024-05-09T18:03:05.402Z,1.42
2024-05-09T18:05:32.375Z,1.65
2024-05-09T18:07:59.290Z,1.60
2024-05-09T18:10:33.135Z,1.40
2024-05-09T18:13:04.246Z,2.28
2024-05-09T18:15:31.031Z,1.85
2024-05-09T18:17:58.144Z,1.27
2024-05-09T18:20:33.171Z,1.52
2024-05-09T18:23:08.135Z,1.48
2024-05-09T18:25:35.148Z,1.60
2024-05-09T18:28:02.843Z,1.48
2024-05-09T18:30:34.744Z,1.70
2024-05-09T18:33:03.578Z,1.73
2024-05-09T18:35:30.520Z,1.70
2024-05-09T18:37:57.204Z,1.75
2024-05-09T18:42:53.505Z,1.83
2024-05-09T18:45:20.260Z,1.30
2024-05-09T18:47:47.064Z,1.80
2024-05-09T18:50:20.551Z,1.70
2024-05-09T18:52:54.419Z,1.50
2024-05-09T18:55:21.186Z,1.80
2024-05-09T18:57:47.927Z,1.73
2024-05-09T19:00:26.658Z,2.08
2024-05-09T19:03:00.582Z,1.60
2024-05-09T19:05:27.958Z,2.00
2024-05-09T19:07:54.752Z,1.52
2024-05-09T19:10:23.092Z,1.73
2024-05-09T19:12:52.953Z,2.15
2024-05-09T19:15:19.701Z,2.03
2024-05-09T19:17:47.479Z,1.88
2024-05-09T19:20:24.835Z,2.10
2024-05-09T19:22:55.470Z,1.88
2024-05-09T19:25:22.135Z,1.92
2024-05-09T19:27:49.000Z,1.83
2024-05-09T19:30:25.078Z,1.70
2024-05-09T19:33:00.797Z,1.70
2024-05-09T19:35:27.520Z,2.47
2024-05-09T19:37:54.252Z,1.73
2024-05-09T19:40:28.805Z,1.90
2024-05-09T19:42:58.639Z,1.95
2024-05-09T19:45:25.467Z,2.00
2024-05-09T19:47:52.448Z,1.70
2024-05-09T19:50:26.802Z,2.65
2024-05-09T19:53:02.265Z,2.60
2024-05-09T19:55:28.948Z,2.63
2024-05-09T19:57:55.684Z,27.75
2024-05-09T20:00:29.218Z,56.45
2024-05-09T20:03:02.107Z,29.40
2024-05-09T20:05:31.224Z,22.73
2024-05-09T20:07:58.247Z,16.40
2024-05-09T20:10:31.108Z,6.05
2024-05-09T20:12:59.747Z,3.38
2024-05-09T20:15:26.741Z,4.45
2024-05-09T20:17:53.787Z,26.38
2024-05-09T20:20:28.684Z,23.13
2024-05-09T20:23:03.186Z,25.35
2024-05-09T20:25:30.063Z,22.25
2024-05-09T20:27:56.849Z,18.67
2024-05-09T20:30:31.223Z,9.85
2024-05-09T20:33:00.462Z,6.10
2024-05-09T20:35:27.552Z,4.07
2024-05-09T20:37:54.227Z,3.33
2024-05-09T20:40:28.735Z,3.13
2024-05-09T20:42:59.701Z,2.55
2024-05-09T20:45:26.481Z,2.40
2024-05-09T20:47:53.407Z,2.10
2024-05-09T20:50:28.541Z,2.50
2024-05-09T20:53:03.026Z,2.75
2024-05-09T20:55:30.299Z,2.00
2024-05-09T20:57:57.545Z,2.70
2024-05-09T21:00:33.860Z,2.42
2024-05-09T21:03:05.781Z,1.90
2024-05-09T21:05:33.105Z,2.47
2024-05-09T21:08:00.184Z,2.28
2024-05-09T21:10:27.399Z,2.10
2024-05-09T21:12:57.984Z,2.47
2024-05-09T21:15:24.717Z,2.05
2024-05-09T21:17:51.527Z,2.40
2024-05-09T21:20:23.955Z,2.20
2024-05-09T21:25:22.644Z,2.70
2024-05-09T21:27:49.376Z,2.30
2024-05-09T21:30:22.853Z,2.00
2024-05-09T21:32:58.578Z,2.35
2024-05-09T21:35:25.331Z,2.30
2024-05-09T21:37:52.104Z,2.65
2024-05-09T21:40:27.210Z,2.70
2024-05-09T21:43:00.653Z,2.28
2024-05-09T21:45:27.701Z,2.58
2024-05-09T21:47:54.643Z,2.40
2024-05-09T21:50:28.029Z,2.78
2024-05-09T21:52:59.240Z,2.95
2024-05-09T21:55:25.923Z,2.63
2024-05-09T21:57:52.633Z,3.00
2024-05-09T22:00:28.838Z,2.42
2024-05-09T22:03:02.305Z,2.80
2024-05-09T22:05:29.632Z,3.10
2024-05-09T22:07:57.282Z,2.70
2024-05-09T22:10:30.570Z,2.53
2024-05-09T22:13:01.273Z,3.10
2024-05-09T22:15:28.080Z,2.45
2024-05-09T22:17:55.682Z,2.25
2024-05-09T22:20:29.202Z,2.65
2024-05-09T22:23:02.916Z,2.05
2024-05-09T22:25:31.076Z,2.70
2024-05-09T22:27:58.687Z,2.30
2024-05-09T22:30:34.104Z,2.90
2024-05-09T22:33:05.475Z,2.67
2024-05-09T22:35:32.433Z,2.55
2024-05-09T22:37:59.137Z,2.38
2024-05-09T22:40:37.944Z,2.45
2024-05-09T22:43:12.828Z,2.72
2024-05-09T22:45:39.808Z,3.13
2024-05-09T22:48:07.421Z,2.60
2024-05-09T22:50:34.268Z,2.47
2024-05-09T22:53:01.153Z,2.88
2024-05-09T22:55:28.005Z,2.80
2024-05-09T22:57:55.418Z,2.72
2024-05-09T23:00:30.760Z,3.13
2024-05-09T23:02:59.730Z,2.92
2024-05-09T23:05:26.617Z,2.85
2024-05-09T23:07:53.414Z,2.58
2024-05-09T23:10:27.486Z,2.78
2024-05-09T23:12:59.076Z,3.05
2024-05-09T23:15:25.903Z,2.90
2024-05-09T23:17:52.859Z,3.05
2024-05-09T23:20:29.867Z,2.38
2024-05-09T23:25:29.932Z,2.45
2024-05-09T23:27:56.882Z,2.60
2024-05-09T23:30:33.243Z,2.78
2024-05-09T23:33:04.754Z,2.70
2024-05-09T23:35:31.661Z,2.78
2024-05-09T23:37:58.351Z,2.63
2024-05-09T23:40:36.390Z,2.80
2024-05-09T23:43:06.469Z,2.88
2024-05-09T23:45:33.336Z,3.20
2024-05-09T23:48:00.342Z,3.08
2024-05-09T23:50:34.282Z,3.00
2024-05-09T23:53:04.188Z,2.90
2024-05-09T23:55:31.958Z,2.70
2024-05-09T23:57:59.290Z,3.20
